메인 페이지
METAR-TAF:

METAR-TAF

공항 :

카라카스, 베네수엘라

시몬 볼리바르 국제공항

위도: 10-36N, 경도: 066-59W, 고도: 43m

현재 날씨관측

예보는 48분 전, 04:00시(UTC)에 발표되었습니다.
무풍
온도 25°C
습도 74%
기압 1012 hPa
시정 10km 이상
고도 1600ft 상공 구름 조금

METAR: SVMI 200400Z 00000KT 9999 FEW016 25/20 Q1012

시각: 00:48 (04:48 UTC)

예보

예보는 6 시간 48분 전, 22:00시(UTC)에 발표되었습니다.
예보 대상 시간: 20일 00시부터 21일 00시까지 (UTC)
10kt
시정 10km 이상
고도 1600ft 상공 구름 조금
전환 중
20일 00시부터 20일 04시까지 (UTC)
5kt
고도 1600ft 상공 구름 보통

TAF: SVMI 192200Z 2000/2100 09010KT 9999 FEW016 TX33/19Z TN24/09Z BECMG 2000/2004 08005KT SCT016

4,000개 이상의 공항 관측 자료 및 예보 (METAR 및 TAF 보고).

지도상에서 검색 가능한 기상관측소가 노란 점과 빨간 점으로 표시되어 있습니다.

기상관측소 명을 보려면 표시 위로 마우스를 이동하세요.

날씨 관측과 예보를 보려면 클릭하세요.

지도 변경 : 확대하려면 엑스 표시가 있는 녹색 버튼, 축소하려면 빼기 표시가 있는 녹색 버튼, 다음 페이지의 지도를 보려면 녹색 화살표를 클릭하세요.


METAR-TAF: